Time;durP1;ratioP1;P1;durP2;ratioP2;P2;SDS_P1;SDS_P2;PMS_P1;PMS_P2;Temp;Humidity;BMP_temperature;BMP_pressure;BME280_temperature;BME280_humidity;BME280_pressure;Samples;Min_cycle;Max_cycle;Signal;HPM_P1;HPM_P2
2021/05/04 00:01:13;;;;;;;17.55;3.30;;;;;;;11.02;100.00;100338.38;5010992;28;20135;-65
2021/05/04 00:03:38;;;;;;;17.70;3.35;;;;;;;11.03;100.00;100337.31;5010842;28;20093;-62
2021/05/04 00:06:04;;;;;;;16.75;3.75;;;;;;;11.04;100.00;100347.16;5010897;28;20480;-65
2021/05/04 00:08:30;;;;;;;21.90;3.42;;;;;;;11.02;100.00;100335.66;5014177;28;20507;-65
2021/05/04 00:10:56;;;;;;;23.15;3.60;;;;;;;11.02;100.00;100332.91;5014916;28;20408;-63
2021/05/04 00:13:22;;;;;;;25.58;4.57;;;;;;;11.00;100.00;100324.16;5014358;28;20046;-64
2021/05/04 00:15:47;;;;;;;23.20;4.40;;;;;;;10.97;100.00;100332.88;5014682;28;20526;-63
2021/05/04 00:18:13;;;;;;;21.48;3.50;;;;;;;10.96;100.00;100320.28;5014774;28;20487;-64
2021/05/04 00:20:40;;;;;;;15.10;3.28;;;;;;;10.95;100.00;100326.84;5014601;28;20030;-63
2021/05/04 00:23:06;;;;;;;20.45;3.60;;;;;;;10.95;100.00;100320.56;5014448;28;20029;-62
2021/05/04 00:25:32;;;;;;;26.67;4.18;;;;;;;10.97;100.00;100319.22;5014550;28;20044;-64
2021/05/04 00:27:58;;;;;;;23.80;3.85;;;;;;;10.95;100.00;100307.72;5014497;28;20042;-65
2021/05/04 00:30:24;;;;;;;28.10;5.35;;;;;;;10.94;100.00;100286.94;5014416;28;20038;-63
2021/05/04 00:32:50;;;;;;;18.88;3.80;;;;;;;10.93;100.00;100298.94;5014197;28;20381;-64
2021/05/04 00:35:15;;;;;;;20.13;3.65;;;;;;;10.90;100.00;100277.59;5014432;28;20057;-64
2021/05/04 00:37:41;;;;;;;23.70;3.33;;;;;;;10.91;100.00;100303.81;5014266;28;20038;-64
2021/05/04 00:40:07;;;;;;;21.95;3.58;;;;;;;10.90;100.00;100313.09;5014266;28;20044;-62
2021/05/04 00:42:33;;;;;;;22.17;3.92;;;;;;;10.89;100.00;100300.53;5014202;28;20029;-62
2021/05/04 00:44:59;;;;;;;24.48;3.83;;;;;;;10.90;100.00;100312.28;5014230;28;20495;-62
2021/05/04 00:47:25;;;;;;;25.00;3.97;;;;;;;10.88;100.00;100318.00;5014209;28;20037;-65
2021/05/04 00:49:50;;;;;;;34.10;4.25;;;;;;;10.91;100.00;100303.81;5029386;28;20486;-63
2021/05/04 00:52:16;;;;;;;17.83;3.35;;;;;;;10.91;100.00;100303.81;5014149;28;20042;-64
2021/05/04 00:54:42;;;;;;;23.70;4.45;;;;;;;10.92;100.00;100305.47;5014045;28;20045;-63
2021/05/04 00:57:08;;;;;;;28.67;4.68;;;;;;;10.91;100.00;100297.53;5013895;28;20038;-64
2021/05/04 00:59:36;;;;;;;29.33;4.60;;;;;;;10.90;100.00;100302.19;5013898;28;20068;-62
2021/05/04 01:02:02;;;;;;;32.22;5.70;;;;;;;10.87;100.00;100269.91;5013931;28;20073;-63
2021/05/04 01:04:28;;;;;;;23.58;4.57;;;;;;;10.89;100.00;100292.34;5013924;28;20428;-62
2021/05/04 01:06:54;;;;;;;31.52;5.32;;;;;;;10.85;100.00;100289.31;5013834;28;20511;-63
2021/05/04 01:09:23;;;;;;;22.10;4.72;;;;;;;10.86;100.00;100274.56;5013949;28;20073;-63
2021/05/04 01:11:50;;;;;;;30.23;6.15;;;;;;;10.86;100.00;100284.66;5013596;28;20050;-65
2021/05/04 01:14:16;;;;;;;33.45;5.28;;;;;;;10.84;100.00;100303.22;5013480;28;20484;-65
2021/05/04 01:16:49;;;;;;;23.83;4.75;;;;;;;10.80;100.00;100281.06;5013540;28;20041;-64
2021/05/04 01:19:17;;;;;;;19.95;3.55;;;;;;;10.76;100.00;100300.94;5013030;28;20056;-64
2021/05/04 01:21:43;;;;;;;31.25;4.82;;;;;;;10.74;100.00;100282.06;5014024;28;20061;-62
2021/05/04 01:24:09;;;;;;;26.67;4.28;;;;;;;10.69;100.00;100313.97;5013532;28;20492;-63
2021/05/04 01:26:35;;;;;;;35.50;5.40;;;;;;;10.62;100.00;100313.34;5013642;28;20052;-66
2021/05/04 01:29:03;;;;;;;23.27;4.68;;;;;;;10.57;100.00;100309.47;5013502;28;20112;-65
2021/05/04 01:31:29;;;;;;;30.38;5.45;;;;;;;10.54;100.00;100314.63;5013299;28;20492;-64
2021/05/04 01:33:54;;;;;;;30.33;4.97;;;;;;;10.37;100.00;100322.88;5013192;28;20041;-63
2021/05/04 01:36:21;;;;;;;27.02;4.13;;;;;;;10.31;100.00;100291.13;5013263;28;20065;-67
2021/05/04 01:38:46;;;;;;;28.67;5.05;;;;;;;10.27;100.00;100314.56;5013344;28;20124;-64
2021/05/04 01:41:13;;;;;;;26.65;4.65;;;;;;;10.22;100.00;100306.28;5013161;28;20038;-66
2021/05/04 01:43:38;;;;;;;22.70;3.20;;;;;;;10.24;100.00;100304.16;5013071;28;20034;-64
2021/05/04 01:46:04;;;;;;;19.55;3.90;;;;;;;10.26;100.00;100299.28;5013211;28;20104;-63
2021/05/04 01:48:30;;;;;;;25.45;4.50;;;;;;;10.23;100.00;100324.31;5013166;28;20038;-62
2021/05/04 01:50:56;;;;;;;19.70;3.45;;;;;;;10.26;100.00;100302.00;5013445;28;20088;-64
2021/05/04 01:53:21;;;;;;;13.00;2.60;;;;;;;10.24;100.00;100320.53;5012705;28;20049;-64
2021/05/04 01:55:47;;;;;;;18.15;3.20;;;;;;;10.27;100.00;100336.41;5012859;28;20030;-62
2021/05/04 01:58:13;;;;;;;19.35;3.05;;;;;;;10.27;100.00;100328.22;5012923;28;20092;-63
2021/05/04 02:00:38;;;;;;;18.58;2.67;;;;;;;10.28;100.00;100338.06;5012779;28;20045;-62
2021/05/04 02:03:04;;;;;;;19.45;3.30;;;;;;;10.27;100.00;100341.88;5012720;28;20030;-63
2021/05/04 02:05:30;;;;;;;14.10;2.40;;;;;;;10.26;100.00;100354.69;5012648;28;20591;-64
2021/05/04 02:07:56;;;;;;;10.70;2.70;;;;;;;10.25;100.00;100360.41;5012423;28;20133;-65
2021/05/04 02:10:22;;;;;;;14.10;2.22;;;;;;;10.22;100.00;100356.25;5012521;28;20034;-64
2021/05/04 02:12:48;;;;;;;16.33;2.70;;;;;;;10.20;100.00;100346.63;5012314;28;20045;-64
2021/05/04 02:15:14;;;;;;;11.88;2.20;;;;;;;10.23;100.00;100370.72;5012582;28;20046;-64
2021/05/04 02:17:40;;;;;;;11.07;2.10;;;;;;;10.20;100.00;100382.09;5012396;28;20480;-64
2021/05/04 02:20:06;;;;;;;17.70;2.65;;;;;;;10.19;100.00;100364.91;5012528;28;20037;-65
2021/05/04 02:22:33;;;;;;;13.15;2.83;;;;;;;10.19;100.00;100381.28;5012314;28;20038;-62
2021/05/04 02:25:00;;;;;;;15.88;1.92;;;;;;;10.18;100.00;100387.81;5012243;28;20038;-63
2021/05/04 02:27:26;;;;;;;10.75;1.70;;;;;;;10.21;100.00;100370.13;5012405;28;20400;-64
2021/05/04 02:29:53;;;;;;;9.80;1.38;;;;;;;10.19;100.00;100377.72;5012021;28;20046;-62
2021/05/04 02:32:18;;;;;;;12.35;1.38;;;;;;;10.19;100.00;100377.72;5011462;28;20559;-62
2021/05/04 02:34:44;;;;;;;13.10;1.92;;;;;;;10.17;100.00;100374.44;5012152;28;20084;-65
2021/05/04 02:37:10;;;;;;;8.25;1.63;;;;;;;10.18;100.00;100400.63;5012144;28;20034;-62
2021/05/04 02:39:36;;;;;;;7.00;1.33;;;;;;;10.17;100.00;100401.72;5012040;28;20042;-64
2021/05/04 02:42:02;;;;;;;12.25;2.10;;;;;;;10.18;100.00;100403.38;5011982;28;20439;-64
2021/05/04 02:44:27;;;;;;;11.50;2.42;;;;;;;10.15;100.00;100417.53;5011888;28;20038;-66
2021/05/04 02:46:53;;;;;;;12.43;2.17;;;;;;;10.15;100.00;100414.78;5011891;28;20107;-64
2021/05/04 02:49:19;;;;;;;19.60;2.75;;;;;;;10.13;100.00;100411.50;5011971;28;20187;-64
2021/05/04 02:51:45;;;;;;;15.52;2.42;;;;;;;10.11;100.00;100425.38;5011875;28;20049;-63
2021/05/04 02:54:11;;;;;;;9.05;1.98;;;;;;;10.14;100.00;100424.06;5011772;28;20042;-63
2021/05/04 02:56:37;;;;;;;17.42;2.95;;;;;;;10.13;100.00;100433.31;5011783;28;20481;-64
2021/05/04 02:59:02;;;;;;;16.00;2.03;;;;;;;10.14;100.00;100433.06;5011752;28;20088;-60
2021/05/04 03:01:28;;;;;;;15.98;2.55;;;;;;;10.16;100.00;100436.38;5011588;28;20037;-62
2021/05/04 03:03:54;;;;;;;9.85;2.13;;;;;;;10.15;100.00;100440.19;5011597;28;20033;-63
2021/05/04 03:06:19;;;;;;;10.13;2.45;;;;;;;10.17;100.00;100445.38;5011576;28;20033;-64
2021/05/04 03:08:45;;;;;;;18.70;3.05;;;;;;;10.16;100.00;100443.72;5011700;28;20099;-62
2021/05/04 03:11:11;;;;;;;11.90;2.42;;;;;;;10.16;100.00;100450.00;5011615;28;20121;-63
2021/05/04 03:13:36;;;;;;;14.48;1.85;;;;;;;10.14;100.00;100463.09;5009299;28;20042;-62
2021/05/04 03:16:02;;;;;;;16.75;2.30;;;;;;;10.15;100.00;100450.25;5011633;28;20129;-64
2021/05/04 03:18:28;;;;;;;11.93;1.60;;;;;;;10.15;100.00;100455.72;5011486;28;20050;-63
2021/05/04 03:20:54;;;;;;;14.73;2.13;;;;;;;10.15;100.00;100461.19;5011417;28;20044;-63
2021/05/04 03:23:21;;;;;;;19.42;2.53;;;;;;;10.13;100.00;100466.06;5011297;28;20056;-63
2021/05/04 03:25:47;;;;;;;17.00;2.38;;;;;;;10.14;100.00;100478.63;5011413;28;20121;-65
2021/05/04 03:28:14;;;;;;;17.08;3.33;;;;;;;10.13;100.00;100466.06;5011346;28;20038;-62
2021/05/04 03:30:40;;;;;;;15.75;2.08;;;;;;;10.12;100.00;100469.88;5011626;28;20464;-65
2021/05/04 03:33:06;;;;;;;13.13;1.80;;;;;;;10.12;100.00;100483.50;5011103;28;20049;-62
2021/05/04 03:35:32;;;;;;;11.52;1.77;;;;;;;10.11;100.00;100490.03;5011104;28;20053;-64
2021/05/04 03:37:59;;;;;;;13.60;1.75;;;;;;;10.11;100.00;100479.13;5011067;28;20464;-64
2021/05/04 03:40:25;;;;;;;11.40;2.40;;;;;;;10.10;100.00;100482.94;5011102;28;20046;-62
2021/05/04 03:42:50;;;;;;;16.05;1.92;;;;;;;10.07;100.00;100489.72;5009407;28;20088;-63
2021/05/04 03:45:16;;;;;;;14.00;2.15;;;;;;;10.10;100.00;100493.84;5011179;28;20041;-67
2021/05/04 03:47:44;;;;;;;19.65;2.95;;;;;;;10.10;100.00;100493.84;5011154;28;20481;-64
2021/05/04 03:50:15;;;;;;;12.95;1.63;;;;;;;10.07;100.00;100480.72;5011009;28;20095;-65
2021/05/04 03:52:42;;;;;;;13.05;2.38;;;;;;;10.07;100.00;100477.97;5010822;28;20038;-66
2021/05/04 03:55:09;;;;;;;14.73;2.08;;;;;;;10.05;100.00;100493.75;5010997;28;20069;-63
2021/05/04 03:57:35;;;;;;;12.77;1.67;;;;;;;10.04;100.00;100492.91;5010933;28;20034;-65
2021/05/04 04:00:01;;;;;;;10.80;2.30;;;;;;;10.06;100.00;100507.13;5010865;28;20044;-62
2021/05/04 04:02:26;;;;;;;18.80;2.35;;;;;;;10.05;100.00;100507.38;5011017;28;20037;-64
2021/05/04 04:04:52;;;;;;;14.05;2.53;;;;;;;10.03;100.00;100498.63;5010927;28;20056;-62
2021/05/04 04:07:18;;;;;;;12.02;2.65;;;;;;;10.01;100.00;100506.22;5010851;28;20095;-62
2021/05/04 04:09:43;;;;;;;9.65;1.65;;;;;;;10.00;100.00;100510.03;5010854;28;20096;-65
2021/05/04 04:12:09;;;;;;;12.32;2.15;;;;;;;9.97;100.00;100516.81;5010768;28;20034;-64
2021/05/04 04:14:35;;;;;;;12.60;1.73;;;;;;;9.96;100.00;100526.91;5010875;28;20394;-63
2021/05/04 04:17:00;;;;;;;10.77;2.05;;;;;;;9.93;100.00;100500.13;5009425;28;20105;-61
2021/05/04 04:19:26;;;;;;;9.23;2.20;;;;;;;9.92;100.00;100514.84;5010685;28;20121;-61
2021/05/04 04:21:52;;;;;;;13.40;2.72;;;;;;;9.90;100.00;100508.81;5010677;28;20484;-64
2021/05/04 04:24:18;;;;;;;12.43;2.08;;;;;;;9.89;100.00;100531.69;5010637;28;20041;-64
2021/05/04 04:26:44;;;;;;;12.07;2.05;;;;;;;9.89;100.00;100530.84;5010574;28;20042;-63
2021/05/04 04:29:11;;;;;;;17.30;3.17;;;;;;;9.89;100.00;100531.69;5010689;28;20045;-63
2021/05/04 04:31:36;;;;;;;14.07;2.47;;;;;;;9.85;100.00;100525.06;5010615;28;20401;-66
2021/05/04 04:34:03;;;;;;;10.27;1.77;;;;;;;9.83;100.00;100538.13;5010418;28;20465;-62
2021/05/04 04:36:29;;;;;;;15.18;1.63;;;;;;;9.82;100.00;100531.00;5010646;28;20030;-64
2021/05/04 04:38:54;;;;;;;8.10;2.20;;;;;;;9.81;100.00;100537.53;5010722;28;20038;-63
2021/05/04 04:41:20;;;;;;;13.93;2.83;;;;;;;9.81;100.00;100534.81;5010692;28;20065;-63
2021/05/04 04:43:46;;;;;;;15.02;2.50;;;;;;;9.80;100.00;100549.53;5010516;28;20445;-65
2021/05/04 04:46:11;;;;;;;15.00;2.92;;;;;;;9.80;100.00;100549.53;5010494;28;20045;-64
2021/05/04 04:48:37;;;;;;;11.35;1.98;;;;;;;9.80;100.00;100546.78;5010505;28;20400;-65
2021/05/04 04:51:03;;;;;;;10.07;2.10;;;;;;;9.80;100.00;100554.97;5010428;28;20088;-64
2021/05/04 04:53:29;;;;;;;17.90;1.77;;;;;;;9.81;100.00;100555.81;5010327;28;20098;-63
2021/05/04 04:55:54;;;;;;;15.85;2.67;;;;;;;9.80;100.00;100554.16;5014137;28;20065;-65
2021/05/04 04:58:20;;;;;;;12.15;2.03;;;;;;;9.78;100.00;100554.41;5014093;28;20037;-63
2021/05/04 05:00:46;;;;;;;9.35;1.45;;;;;;;9.76;100.00;100575.63;5014172;28;20048;-66
2021/05/04 05:03:11;;;;;;;14.77;1.90;;;;;;;9.75;100.00;100586.78;5013811;28;20053;-63
2021/05/04 05:05:37;;;;;;;7.55;1.33;;;;;;;9.74;100.00;100583.22;5014000;28;20432;-64
2021/05/04 05:08:02;;;;;;;18.02;2.20;;;;;;;9.74;100.00;100583.22;5013795;28;20034;-62
2021/05/04 05:10:28;;;;;;;10.23;1.38;;;;;;;9.71;100.00;100575.50;5013706;28;20045;-66
2021/05/04 05:12:54;;;;;;;9.48;1.55;;;;;;;9.73;100.00;100580.75;5013585;28;20073;-63
2021/05/04 05:15:19;;;;;;;12.90;2.03;;;;;;;9.71;100.00;100605.50;5013733;28;20056;-62
2021/05/04 05:17:45;;;;;;;17.52;1.63;;;;;;;9.74;100.00;100596.88;5013578;28;20045;-63
2021/05/04 05:20:12;;;;;;;11.25;1.48;;;;;;;9.74;100.00;100615.97;5013561;28;20119;-62
2021/05/04 05:22:37;;;;;;;11.35;1.60;;;;;;;9.75;100.00;100612.16;5013549;28;20033;-64
2021/05/04 05:25:04;;;;;;;11.57;1.95;;;;;;;9.77;100.00;100617.38;5013409;28;20037;-67
2021/05/04 05:27:31;;;;;;;10.77;1.95;;;;;;;9.79;100.00;100624.22;5013434;28;20041;-64
2021/05/04 05:29:57;;;;;;;16.08;1.85;;;;;;;9.81;100.00;100627.53;5013347;28;20042;-64
2021/05/04 05:32:23;;;;;;;15.27;2.78;;;;;;;9.81;100.00;100635.72;5013377;28;20440;-64
2021/05/04 05:34:49;;;;;;;12.73;2.53;;;;;;;9.82;100.00;100629.19;5013315;28;20396;-64
2021/05/04 05:37:14;;;;;;;12.85;2.38;;;;;;;9.85;100.00;100647.81;5013220;28;20038;-65
2021/05/04 05:39:43;;;;;;;18.63;1.85;;;;;;;9.89;100.00;100635.34;5013211;28;20044;-63
2021/05/04 05:42:10;;;;;;;15.25;2.58;;;;;;;9.89;100.00;100637.22;5013092;28;20053;-64
2021/05/04 05:44:36;;;;;;;19.08;2.80;;;;;;;9.95;100.00;100652.66;5013075;28;20435;-63
2021/05/04 05:47:02;;;;;;;9.80;2.20;;;;;;;9.94;100.00;100646.38;5012987;28;20038;-63
2021/05/04 05:49:28;;;;;;;13.60;2.17;;;;;;;10.00;100.00;100662.81;5013205;28;20046;-62
2021/05/04 05:51:54;;;;;;;10.88;2.42;;;;;;;10.00;100.00;100657.38;5013016;28;20045;-62
2021/05/04 05:54:20;;;;;;;9.38;1.65;;;;;;;10.07;100.00;100660.81;5012880;28;20034;-65
2021/05/04 05:56:45;;;;;;;10.50;1.80;;;;;;;10.08;100.00;100665.19;5013011;28;20041;-63
2021/05/04 05:59:11;;;;;;;11.13;1.77;;;;;;;10.14;100.00;100664.19;5012831;28;20037;-66
2021/05/04 06:01:37;;;;;;;11.70;2.15;;;;;;;10.16;100.00;100672.97;5012715;28;20392;-63
2021/05/04 06:04:03;;;;;;;15.13;2.22;;;;;;;10.18;100.00;100665.38;5012630;28;20030;-63
2021/05/04 06:06:28;;;;;;;15.05;1.85;;;;;;;10.22;100.00;100682.94;5012574;28;20439;-65
2021/05/04 06:08:55;;;;;;;15.88;2.63;;;;;;;10.24;100.00;100687.09;5012882;28;20030;-62
2021/05/04 06:11:20;;;;;;;10.95;1.60;;;;;;;10.25;100.00;100687.94;5012539;28;20060;-64
2021/05/04 06:13:46;;;;;;;13.93;3.03;;;;;;;10.26;100.00;100681.41;5012311;28;20056;-64
2021/05/04 06:16:11;;;;;;;11.43;1.92;;;;;;;10.27;100.00;100680.31;5012576;28;20034;-63
2021/05/04 06:18:37;;;;;;;14.73;2.30;;;;;;;10.29;100.00;100694.56;5012536;28;20038;-64
2021/05/04 06:21:03;;;;;;;11.75;2.53;;;;;;;10.29;100.00;100700.00;5012405;28;20451;-63
2021/05/04 06:23:29;;;;;;;15.85;2.75;;;;;;;10.30;100.00;100704.41;5012350;28;20037;-63
2021/05/04 06:25:54;;;;;;;11.85;2.88;;;;;;;10.29;100.00;100700.00;5011356;28;20038;-65
2021/05/04 06:28:20;;;;;;;14.55;2.15;;;;;;;10.35;100.00;100706.38;5012290;28;20507;-65
2021/05/04 06:30:46;;;;;;;10.48;1.95;;;;;;;10.35;100.00;100704.47;5010843;28;20045;-64
2021/05/04 06:33:13;;;;;;;16.83;2.15;;;;;;;10.36;100.00;100714.31;5012113;28;20045;-63
2021/05/04 06:35:43;;;;;;;13.57;1.73;;;;;;;10.38;100.00;100709.44;5027362;28;20069;-65
2021/05/04 06:38:14;;;;;;;12.82;2.05;;;;;;;10.41;100.00;100719.91;5012236;28;20042;-65
2021/05/04 06:40:40;;;;;;;14.52;2.65;;;;;;;10.41;100.00;100719.91;5012153;28;20034;-63
2021/05/04 06:43:06;;;;;;;11.98;2.17;;;;;;;10.45;100.00;100726.53;5012905;28;20088;-65
2021/05/04 06:45:32;;;;;;;12.60;3.33;;;;;;;10.44;100.00;100727.59;5012230;28;20042;-64
2021/05/04 06:47:58;;;;;;;15.35;2.67;;;;;;;10.46;100.00;100739.09;5012247;28;20038;-64
2021/05/04 06:50:23;;;;;;;16.02;2.45;;;;;;;10.45;100.00;100748.38;5012226;28;20500;-63
2021/05/04 06:52:49;;;;;;;7.95;2.35;;;;;;;10.50;100.00;100750.38;5012023;28;20034;-62
2021/05/04 06:55:15;;;;;;;9.52;1.98;;;;;;;10.50;100.00;100751.19;5012113;28;20042;-65
2021/05/04 06:57:41;;;;;;;12.32;2.30;;;;;;;10.54;100.00;100757.81;5012130;28;20041;-65
2021/05/04 07:00:08;;;;;;;12.27;2.03;;;;;;;10.55;100.00;100754.00;5012573;28;20078;-63
2021/05/04 07:02:34;;;;;;;8.88;1.67;;;;;;;10.56;100.00;100772.06;5011867;28;20034;-63
2021/05/04 07:05:00;;;;;;;14.90;2.35;;;;;;;10.52;100.00;100773.63;5011780;28;20030;-66
2021/05/04 07:07:26;;;;;;;9.35;1.73;;;;;;;10.53;100.00;100777.19;5011809;28;20531;-62
2021/05/04 07:09:51;;;;;;;15.48;2.10;;;;;;;10.54;100.00;100779.66;5011731;28;20042;-64
2021/05/04 07:12:18;;;;;;;16.50;2.35;;;;;;;10.55;100.00;100781.31;5011519;28;20049;-62
2021/05/04 07:14:43;;;;;;;11.02;1.70;;;;;;;10.55;100.00;100781.31;5011339;28;20500;-64
2021/05/04 07:17:09;;;;;;;12.75;2.15;;;;;;;10.57;100.00;100794.72;5009631;28;20049;-63
2021/05/04 07:19:37;;;;;;;9.20;1.80;;;;;;;10.74;100.00;100798.34;5011535;28;20061;-63
2021/05/04 07:22:04;;;;;;;10.77;1.70;;;;;;;10.85;100.00;100780.25;5011384;28;20053;-64
2021/05/04 07:24:29;;;;;;;8.30;2.47;;;;;;;10.88;100.00;100801.63;5011386;28;20037;-62
2021/05/04 07:26:55;;;;;;;12.50;2.60;;;;;;;10.85;100.00;100786.53;5011219;28;20030;-63
2021/05/04 07:29:21;;;;;;;7.13;1.48;;;;;;;10.82;100.00;100794.41;5010041;28;20822;-62
2021/05/04 07:31:46;;;;;;;7.22;1.77;;;;;;;10.79;100.00;100808.56;5010263;28;20048;-65
2021/05/04 07:34:12;;;;;;;13.35;2.47;;;;;;;10.72;100.00;100775.06;5011002;28;20063;-63
2021/05/04 07:36:37;;;;;;;7.03;1.50;;;;;;;10.75;100.00;100823.75;5010964;28;20049;-63
2021/05/04 07:39:04;;;;;;;12.20;2.28;;;;;;;10.89;100.00;100819.66;5010873;28;20362;-61
2021/05/04 07:41:31;;;;;;;11.38;1.88;;;;;;;11.00;100.00;100835.19;5010638;28;20493;-65
2021/05/04 07:43:57;;;;;;;7.88;1.38;;;;;;;11.12;100.00;100830.50;5010131;28;20033;-64
2021/05/04 07:46:22;;;;;;;11.45;1.98;;;;;;;11.20;100.00;100812.03;5010897;28;20037;-61
2021/05/04 07:48:48;;;;;;;7.63;1.42;;;;;;;11.22;100.00;100835.31;5010187;28;20080;-64
2021/05/04 07:51:14;;;;;;;7.38;1.40;;;;;;;11.32;100.00;100837.41;5010395;28;20400;-62
2021/05/04 07:53:40;;;;;;;17.30;2.10;;;;;;;11.34;100.00;100843.44;5010016;28;20045;-64
2021/05/04 07:56:05;;;;;;;10.23;2.00;;;;;;;11.43;100.00;100848.22;5010926;28;20045;-63
2021/05/04 07:58:31;;;;;;;11.10;1.50;;;;;;;11.49;100.00;100851.91;5010803;28;20544;-62
2021/05/04 08:00:57;;;;;;;8.55;1.85;;;;;;;11.66;100.00;100847.28;5010844;28;20037;-63
2021/05/04 08:03:23;;;;;;;6.72;2.03;;;;;;;11.63;100.00;100831.34;5009814;28;20030;-64
2021/05/04 08:05:50;;;;;;;11.68;1.65;;;;;;;11.66;100.00;100852.75;5010154;28;20132;-61
2021/05/04 08:08:16;;;;;;;7.68;2.17;;;;;;;11.59;100.00;100857.53;5010218;28;20145;-62
2021/05/04 08:10:43;;;;;;;13.00;2.33;;;;;;;11.71;100.00;100861.03;5008860;28;20032;-63
2021/05/04 08:13:08;;;;;;;8.23;1.90;;;;;;;11.77;100.00;100862.75;5010359;28;20045;-61
2021/05/04 08:15:35;;;;;;;13.57;1.75;;;;;;;11.89;100.00;100861.88;5009995;28;20046;-63
2021/05/04 08:18:07;;;;;;;11.57;1.50;;;;;;;11.95;100.00;100871.81;5010326;28;20121;-63
2021/05/04 08:20:34;;;;;;;11.73;2.22;;;;;;;11.95;100.00;100869.91;5009810;28;20087;-65
2021/05/04 08:23:03;;;;;;;13.60;2.53;;;;;;;11.95;100.00;100871.81;5009825;28;20042;-63
2021/05/04 08:25:29;;;;;;;11.02;2.10;;;;;;;11.92;100.00;100880.53;4999261;28;20068;-61
2021/05/04 08:27:55;;;;;;;19.90;3.00;;;;;;;11.93;100.00;100882.19;5011230;28;20045;-61
2021/05/04 08:30:22;;;;;;;13.93;1.92;;;;;;;11.97;100.00;100869.66;5014540;28;20042;-62
2021/05/04 08:32:49;;;;;;;15.73;2.60;;;;;;;12.07;100.00;100880.75;5013187;28;20057;-62
2021/05/04 08:35:15;;;;;;;11.45;1.98;;;;;;;12.08;100.00;100888.72;5014202;28;20484;-65
2021/05/04 08:37:41;;;;;;;7.35;1.88;;;;;;;12.18;100.00;100892.69;5029038;28;20045;-64
2021/05/04 08:40:07;;;;;;;10.27;1.75;;;;;;;12.13;100.00;100882.47;5014252;28;20140;-65
2021/05/04 08:42:33;;;;;;;12.18;1.98;;;;;;;12.03;100.00;100904.25;5014225;28;20047;-65
2021/05/04 08:45:03;;;;;;;12.32;2.13;;;;;;;11.85;100.00;100905.34;5014237;28;20051;-64
2021/05/04 08:47:29;;;;;;;13.70;2.72;;;;;;;11.72;100.00;100902.88;5014452;28;20034;-66
2021/05/04 08:49:56;;;;;;;6.82;1.80;;;;;;;11.68;100.00;100909.94;5014095;28;20045;-65
2021/05/04 08:52:21;;;;;;;11.85;2.13;;;;;;;11.85;100.00;100896.28;5013998;28;20037;-62
2021/05/04 08:54:48;;;;;;;10.25;2.30;;;;;;;11.85;100.00;100899.03;5013904;28;20469;-66
2021/05/04 08:57:14;;;;;;;15.38;2.28;;;;;;;11.76;100.00;100913.09;5013961;28;20041;-64
2021/05/04 08:59:40;;;;;;;12.85;2.33;;;;;;;12.05;100.00;100907.56;5013867;28;20468;-64
2021/05/04 09:02:06;;;;;;;10.40;3.38;;;;;;;12.00;100.00;100934.88;5014182;28;20038;-65
2021/05/04 09:04:40;;;;;;;11.45;2.15;;;;;;;11.94;100.00;100912.03;5013911;28;20033;-62
2021/05/04 09:07:26;;;;;;;9.48;1.88;;;;;;;12.02;100.00;100927.22;5013741;28;20046;-64
2021/05/04 09:12:44;;;;;;;11.02;2.45;;;;;;;12.28;100.00;100940.22;5013633;28;20038;-61
2021/05/04 09:15:40;;;;;;;9.52;2.10;;;;;;;12.27;100.00;100933.09;5013530;28;20466;-64
2021/05/04 09:21:32;;;;;;;14.02;2.50;;;;;;;12.48;100.00;100942.41;5013010;28;20033;-63
2021/05/04 09:23:58;;;;;;;9.73;2.08;;;;;;;12.50;100.00;100943.03;5013287;28;20029;-63
2021/05/04 09:26:33;;;;;;;10.45;1.50;;;;;;;12.35;100.00;100943.63;5012006;28;20606;-67
2021/05/04 09:28:58;;;;;;;10.98;2.10;;;;;;;12.28;100.00;100937.47;5013381;28;20040;-64
2021/05/04 09:31:29;;;;;;;8.25;1.25;;;;;;;12.44;100.00;100940.44;5012870;28;20040;-62
2021/05/04 09:34:06;;;;;;;9.27;1.30;;;;;;;12.49;100.00;100944.06;5012984;28;20038;-62
2021/05/04 09:36:51;;;;;;;11.18;1.55;;;;;;;12.53;100.00;100945.25;5013380;28;20033;-60
2021/05/04 09:39:28;;;;;;;10.77;1.52;;;;;;;12.70;100.00;100934.25;5013265;28;20088;-63
2021/05/04 09:41:56;;;;;;;7.57;1.95;;;;;;;12.80;100.00;100945.31;5013442;28;20041;-62
2021/05/04 09:44:38;;;;;;;8.90;1.83;;;;;;;12.99;100.00;100949.41;5013028;28;20034;-63
2021/05/04 09:47:05;;;;;;;9.05;1.90;;;;;;;13.24;99.46;100939.88;5013092;28;20042;-64
2021/05/04 09:49:36;;;;;;;9.15;1.52;;;;;;;13.09;95.34;100947.88;5013121;28;20041;-62
2021/05/04 09:55:09;;;;;;;7.47;1.60;;;;;;;12.89;100.00;100960.25;5013013;28;20045;-62
2021/05/04 09:57:43;;;;;;;8.20;1.60;;;;;;;13.10;100.00;100952.28;5012775;28;20084;-64
2021/05/04 10:00:15;;;;;;;10.40;1.88;;;;;;;13.25;97.85;100963.47;5012940;28;20125;-64
2021/05/04 10:02:41;;;;;;;12.45;1.92;;;;;;;13.47;97.02;100955.19;5010969;28;20120;-64
2021/05/04 10:05:13;;;;;;;7.57;1.73;;;;;;;13.52;89.89;100953.31;5011220;28;20100;-61
2021/05/04 10:07:39;;;;;;;9.02;1.52;;;;;;;13.37;86.96;100955.94;5012269;28;20124;-61
2021/05/04 10:10:08;;;;;;;6.53;1.42;;;;;;;13.16;87.77;100953.97;5012526;28;20076;-61
2021/05/04 10:12:36;;;;;;;6.93;1.42;;;;;;;13.23;91.17;100955.50;5012543;28;20058;-65
2021/05/04 10:15:14;;;;;;;11.50;2.00;;;;;;;13.10;92.28;100949.53;5012405;28;20121;-62
2021/05/04 10:17:40;;;;;;;7.05;1.63;;;;;;;13.30;89.50;100941.56;5012475;28;20041;-63
2021/05/04 10:20:14;;;;;;;9.68;2.03;;;;;;;13.54;81.46;100964.88;5012311;28;20069;-63
2021/05/04 10:22:40;;;;;;;7.80;1.73;;;;;;;13.56;82.54;100979.19;5012369;28;20030;-62
2021/05/04 10:25:09;;;;;;;11.48;2.08;;;;;;;13.54;87.45;100966.81;5027465;28;20037;-65
2021/05/04 10:27:37;;;;;;;6.43;1.73;;;;;;;13.48;89.02;100979.63;5011822;28;20041;-64
2021/05/04 10:30:04;;;;;;;3.10;1.10;;;;;;;13.25;89.19;100974.44;5012367;28;20121;-62
2021/05/04 10:32:50;;;;;;;8.73;1.30;;;;;;;13.42;90.39;100969.69;5012109;28;20180;-63
2021/05/04 10:35:34;;;;;;;8.35;1.20;;;;;;;13.61;91.49;100977.56;5011953;28;20042;-64
2021/05/04 10:38:04;;;;;;;12.18;1.63;;;;;;;13.72;91.33;100973.84;5012063;28;20131;-63
2021/05/04 10:40:31;;;;;;;10.23;1.77;;;;;;;13.79;93.52;100975.28;5010758;28;20026;-63
2021/05/04 10:42:58;;;;;;;7.28;1.80;;;;;;;14.01;89.65;100983.44;5011850;28;20468;-62
2021/05/04 10:45:41;;;;;;;8.55;1.67;;;;;;;14.08;72.78;100978.56;5010645;28;20030;-63
2021/05/04 10:48:08;;;;;;;6.03;1.83;;;;;;;14.22;76.77;100989.09;5011952;28;20057;-63
2021/05/04 10:50:56;;;;;;;6.40;1.83;;;;;;;14.28;75.59;100997.13;5026123;28;20049;-62
2021/05/04 10:53:27;;;;;;;8.55;2.00;;;;;;;14.03;80.84;100991.41;5009614;28;20381;-63
2021/05/04 10:55:53;;;;;;;7.80;1.55;;;;;;;13.87;81.92;101005.00;5011312;28;20050;-61
2021/05/04 10:58:42;;;;;;;10.45;2.05;;;;;;;13.62;83.18;100990.19;5010963;28;20038;-67
2021/05/04 11:01:08;;;;;;;11.70;1.88;;;;;;;13.67;83.94;100999.31;5010946;28;20084;-62
2021/05/04 11:03:34;;;;;;;9.65;1.58;;;;;;;13.80;82.42;100995.31;5010158;28;20057;-62
2021/05/04 11:06:00;;;;;;;8.32;1.80;;;;;;;14.03;82.00;101003.22;5011196;28;20038;-62
2021/05/04 11:08:41;;;;;;;3.65;0.85;;;;;;;13.90;63.02;100997.34;5011611;28;20125;-63
2021/05/04 11:11:22;;;;;;;5.25;0.93;;;;;;;13.88;64.65;100986.59;5011200;28;20128;-63
2021/05/04 11:13:59;;;;;;;6.10;0.95;;;;;;;13.89;71.30;101002.00;5010927;28;20045;-61
2021/05/04 11:16:46;;;;;;;6.90;1.35;;;;;;;13.81;69.35;101010.69;5010603;28;20042;-63
2021/05/04 11:19:17;;;;;;;7.68;1.30;;;;;;;13.78;72.03;101011.22;5010988;28;20022;-62
2021/05/04 11:21:49;;;;;;;6.40;1.20;;;;;;;13.91;65.29;101002.56;5011433;28;20037;-67
2021/05/04 11:24:17;;;;;;;6.38;1.23;;;;;;;13.66;67.37;101018.78;5011341;28;20057;-65